sensor_id;sensor_type;location;lat;lon;timestamp;pressure;altitude;pressure_sealevel;temperature;humidity
40372;BME280;28564;53.346;-6.554;2023-10-09T00:00:15;101449.87;;;20.76;52.45
40372;BME280;28564;53.346;-6.554;2023-10-09T00:02:42;101445.69;;;20.75;52.44
40372;BME280;28564;53.346;-6.554;2023-10-09T00:05:10;101444.73;;;20.54;52.42
40372;BME280;28564;53.346;-6.554;2023-10-09T00:07:37;101441.80;;;20.76;52.37
40372;BME280;28564;53.346;-6.554;2023-10-09T00:10:05;101437.84;;;20.76;52.34
40372;BME280;28564;53.346;-6.554;2023-10-09T00:12:33;101438.95;;;20.77;52.34
40372;BME280;28564;53.346;-6.554;2023-10-09T00:15:01;101441.73;;;20.79;52.27
40372;BME280;28564;53.346;-6.554;2023-10-09T00:17:29;101441.51;;;21.07;52.16
40372;BME280;28564;53.346;-6.554;2023-10-09T00:19:56;101440.38;;;20.78;52.07
40372;BME280;28564;53.346;-6.554;2023-10-09T00:22:23;101441.11;;;20.76;52.08
40372;BME280;28564;53.346;-6.554;2023-10-09T00:24:51;101439.90;;;20.73;52.01
40372;BME280;28564;53.346;-6.554;2023-10-09T00:27:18;101437.91;;;20.72;51.97
40372;BME280;28564;53.346;-6.554;2023-10-09T00:29:45;101436.23;;;20.75;51.88
40372;BME280;28564;53.346;-6.554;2023-10-09T00:32:13;101433.63;;;20.52;51.81
40372;BME280;28564;53.346;-6.554;2023-10-09T00:34:40;101431.97;;;20.71;51.80
40372;BME280;28564;53.346;-6.554;2023-10-09T00:37:07;101430.82;;;20.71;51.85
40372;BME280;28564;53.346;-6.554;2023-10-09T00:39:35;101432.72;;;20.71;51.79
40372;BME280;28564;53.346;-6.554;2023-10-09T00:42:02;101433.88;;;20.49;51.79
40372;BME280;28564;53.346;-6.554;2023-10-09T00:44:30;101429.00;;;20.70;51.75
40372;BME280;28564;53.346;-6.554;2023-10-09T00:46:57;101424.35;;;20.69;51.73
40372;BME280;28564;53.346;-6.554;2023-10-09T00:49:24;101423.96;;;20.70;51.77
40372;BME280;28564;53.346;-6.554;2023-10-09T00:51:52;101424.48;;;20.46;51.72
40372;BME280;28564;53.346;-6.554;2023-10-09T00:54:19;101425.05;;;20.66;51.72
40372;BME280;28564;53.346;-6.554;2023-10-09T00:56:46;101430.70;;;20.63;51.70
40372;BME280;28564;53.346;-6.554;2023-10-09T00:59:16;101431.40;;;20.61;51.70
40372;BME280;28564;53.346;-6.554;2023-10-09T01:01:43;101430.70;;;20.58;51.71
40372;BME280;28564;53.346;-6.554;2023-10-09T01:04:11;101431.29;;;20.59;51.67
40372;BME280;28564;53.346;-6.554;2023-10-09T01:06:39;101429.98;;;20.56;51.65
40372;BME280;28564;53.346;-6.554;2023-10-09T01:09:07;101435.01;;;20.52;51.65
40372;BME280;28564;53.346;-6.554;2023-10-09T01:11:34;101436.02;;;20.74;51.58
40372;BME280;28564;53.346;-6.554;2023-10-09T01:14:01;101439.38;;;20.44;51.57
40372;BME280;28564;53.346;-6.554;2023-10-09T01:16:28;101437.87;;;20.42;51.56
40372;BME280;28564;53.346;-6.554;2023-10-09T01:18:55;101434.37;;;20.41;51.52
40372;BME280;28564;53.346;-6.554;2023-10-09T01:21:23;101437.40;;;20.36;51.51
40372;BME280;28564;53.346;-6.554;2023-10-09T01:23:51;101440.98;;;20.31;51.54
40372;BME280;28564;53.346;-6.554;2023-10-09T01:26:19;101440.40;;;20.24;51.61
40372;BME280;28564;53.346;-6.554;2023-10-09T01:28:46;101436.22;;;20.46;51.71
40372;BME280;28564;53.346;-6.554;2023-10-09T01:31:13;101435.94;;;20.16;51.75
40372;BME280;28564;53.346;-6.554;2023-10-09T01:33:41;101433.33;;;20.38;51.75
40372;BME280;28564;53.346;-6.554;2023-10-09T01:36:07;101432.24;;;20.06;51.86
40372;BME280;28564;53.346;-6.554;2023-10-09T01:38:35;101429.71;;;20.02;52.01
40372;BME280;28564;53.346;-6.554;2023-10-09T01:41:03;101431.89;;;19.97;52.17
40372;BME280;28564;53.346;-6.554;2023-10-09T01:43:29;101436.51;;;20.21;52.27
40372;BME280;28564;53.346;-6.554;2023-10-09T01:45:56;101435.60;;;20.20;52.26
40372;BME280;28564;53.346;-6.554;2023-10-09T01:48:24;101438.09;;;19.91;52.21
40372;BME280;28564;53.346;-6.554;2023-10-09T01:50:51;101439.67;;;20.12;52.29
40372;BME280;28564;53.346;-6.554;2023-10-09T01:53:18;101441.99;;;20.07;52.48
40372;BME280;28564;53.346;-6.554;2023-10-09T01:55:45;101447.13;;;19.79;52.66
40372;BME280;28564;53.346;-6.554;2023-10-09T01:58:13;101446.82;;;20.07;52.72
40372;BME280;28564;53.346;-6.554;2023-10-09T02:00:41;101444.03;;;19.82;52.72
40372;BME280;28564;53.346;-6.554;2023-10-09T02:03:08;101447.52;;;20.10;52.72
40372;BME280;28564;53.346;-6.554;2023-10-09T02:05:35;101454.52;;;20.12;52.73
40372;BME280;28564;53.346;-6.554;2023-10-09T02:08:03;101456.24;;;19.85;52.76
40372;BME280;28564;53.346;-6.554;2023-10-09T02:10:30;101458.10;;;19.84;52.78
40372;BME280;28564;53.346;-6.554;2023-10-09T02:13:00;101460.11;;;19.83;52.81
40372;BME280;28564;53.346;-6.554;2023-10-09T02:15:28;101460.62;;;19.81;52.83
40372;BME280;28564;53.346;-6.554;2023-10-09T02:17:56;101455.16;;;20.07;52.84
40372;BME280;28564;53.346;-6.554;2023-10-09T02:20:23;101457.86;;;20.07;52.88
40372;BME280;28564;53.346;-6.554;2023-10-09T02:22:51;101450.89;;;19.81;52.91
40372;BME280;28564;53.346;-6.554;2023-10-09T02:25:18;101450.41;;;19.85;52.98
40372;BME280;28564;53.346;-6.554;2023-10-09T02:27:45;101450.01;;;20.16;52.89
40372;BME280;28564;53.346;-6.554;2023-10-09T02:30:12;101451.64;;;20.19;52.82
40372;BME280;28564;53.346;-6.554;2023-10-09T02:32:39;101440.81;;;19.93;52.73
40372;BME280;28564;53.346;-6.554;2023-10-09T02:35:07;101438.41;;;20.23;52.67
40372;BME280;28564;53.346;-6.554;2023-10-09T02:37:34;101441.11;;;20.26;52.61
40372;BME280;28564;53.346;-6.554;2023-10-09T02:40:02;101436.40;;;19.96;52.52
40372;BME280;28564;53.346;-6.554;2023-10-09T02:42:30;101431.42;;;20.17;52.61
40372;BME280;28564;53.346;-6.554;2023-10-09T02:44:57;101428.63;;;19.86;52.73
40372;BME280;28564;53.346;-6.554;2023-10-09T02:47:24;101423.09;;;20.13;52.80
40372;BME280;28564;53.346;-6.554;2023-10-09T02:49:51;101415.50;;;20.18;52.82
40372;BME280;28564;53.346;-6.554;2023-10-09T02:52:19;101414.79;;;20.19;52.71
40372;BME280;28564;53.346;-6.554;2023-10-09T02:54:46;101407.31;;;20.18;52.69
40372;BME280;28564;53.346;-6.554;2023-10-09T02:57:13;101407.75;;;20.19;52.71
40372;BME280;28564;53.346;-6.554;2023-10-09T02:59:41;101413.93;;;19.95;52.69
40372;BME280;28564;53.346;-6.554;2023-10-09T03:02:08;101414.41;;;20.21;52.61
40372;BME280;28564;53.346;-6.554;2023-10-09T03:04:35;101416.65;;;19.95;52.61
40372;BME280;28564;53.346;-6.554;2023-10-09T03:07:02;101413.17;;;20.24;52.60
40372;BME280;28564;53.346;-6.554;2023-10-09T03:09:30;101407.04;;;20.24;52.52
40372;BME280;28564;53.346;-6.554;2023-10-09T03:11:58;101406.63;;;20.24;52.48
40372;BME280;28564;53.346;-6.554;2023-10-09T03:14:26;101408.50;;;19.98;52.42
40372;BME280;28564;53.346;-6.554;2023-10-09T03:16:53;101412.32;;;19.92;52.32
40372;BME280;28564;53.346;-6.554;2023-10-09T03:19:20;101413.59;;;20.13;52.37
40372;BME280;28564;53.346;-6.554;2023-10-09T03:21:47;101414.04;;;20.07;52.40
40372;BME280;28564;53.346;-6.554;2023-10-09T03:24:14;101415.29;;;20.02;52.47
40372;BME280;28564;53.346;-6.554;2023-10-09T03:26:41;101413.21;;;19.95;52.56
40372;BME280;28564;53.346;-6.554;2023-10-09T03:29:08;101410.10;;;19.89;52.72
40372;BME280;28564;53.346;-6.554;2023-10-09T03:31:36;101410.59;;;19.85;52.80
40372;BME280;28564;53.346;-6.554;2023-10-09T03:34:04;101411.05;;;19.83;52.90
40372;BME280;28564;53.346;-6.554;2023-10-09T03:36:32;101411.89;;;19.85;52.97
40372;BME280;28564;53.346;-6.554;2023-10-09T03:38:59;101414.04;;;19.87;52.94
40372;BME280;28564;53.346;-6.554;2023-10-09T03:41:27;101410.32;;;19.88;52.93
40372;BME280;28564;53.346;-6.554;2023-10-09T03:43:54;101410.60;;;19.87;52.87
40372;BME280;28564;53.346;-6.554;2023-10-09T03:46:21;101407.65;;;19.84;52.91
40372;BME280;28564;53.346;-6.554;2023-10-09T03:48:49;101398.39;;;19.80;52.99
40372;BME280;28564;53.346;-6.554;2023-10-09T03:51:16;101395.73;;;19.83;53.08
40372;BME280;28564;53.346;-6.554;2023-10-09T03:53:43;101394.03;;;19.85;53.01
40372;BME280;28564;53.346;-6.554;2023-10-09T03:56:10;101385.45;;;19.86;52.97
40372;BME280;28564;53.346;-6.554;2023-10-09T03:58:39;101379.81;;;19.88;52.92
40372;BME280;28564;53.346;-6.554;2023-10-09T04:01:08;101374.97;;;19.90;52.87
40372;BME280;28564;53.346;-6.554;2023-10-09T04:03:36;101368.96;;;19.91;52.83
40372;BME280;28564;53.346;-6.554;2023-10-09T04:06:03;101367.98;;;19.67;52.75
40372;BME280;28564;53.346;-6.554;2023-10-09T04:08:30;101366.46;;;19.91;52.56
40372;BME280;28564;53.346;-6.554;2023-10-09T04:10:57;101367.99;;;19.85;52.59
40372;BME280;28564;53.346;-6.554;2023-10-09T04:13:24;101371.70;;;19.51;52.60
40372;BME280;28564;53.346;-6.554;2023-10-09T04:15:51;101380.94;;;19.43;52.71
40372;BME280;28564;53.346;-6.554;2023-10-09T04:18:20;101390.19;;;19.65;52.85
40372;BME280;28564;53.346;-6.554;2023-10-09T04:20:46;101392.99;;;19.62;52.88
40372;BME280;28564;53.346;-6.554;2023-10-09T04:23:14;101389.29;;;19.60;52.96
40372;BME280;28564;53.346;-6.554;2023-10-09T04:25:40;101379.36;;;19.61;52.98
40372;BME280;28564;53.346;-6.554;2023-10-09T04:28:09;101373.67;;;19.62;52.94
40372;BME280;28564;53.346;-6.554;2023-10-09T04:30:36;101373.90;;;19.59;52.91
40372;BME280;28564;53.346;-6.554;2023-10-09T04:33:03;101380.63;;;19.55;52.97
40372;BME280;28564;53.346;-6.554;2023-10-09T04:35:31;101385.01;;;19.48;53.01
40372;BME280;28564;53.346;-6.554;2023-10-09T04:37:59;101393.28;;;19.43;53.15
40372;BME280;28564;53.346;-6.554;2023-10-09T04:40:26;101388.33;;;19.59;53.22
40372;BME280;28564;53.346;-6.554;2023-10-09T04:42:53;101385.25;;;19.55;53.22
40372;BME280;28564;53.346;-6.554;2023-10-09T04:45:20;101389.24;;;19.73;53.17
40372;BME280;28564;53.346;-6.554;2023-10-09T04:47:47;101389.71;;;19.22;53.22
40372;BME280;28564;53.346;-6.554;2023-10-09T04:50:14;101395.79;;;19.18;53.27
40372;BME280;28564;53.346;-6.554;2023-10-09T04:52:42;101398.93;;;19.37;53.25
40372;BME280;28564;53.346;-6.554;2023-10-09T04:55:09;101398.40;;;19.56;53.27
40372;BME280;28564;53.346;-6.554;2023-10-09T04:57:37;101397.58;;;19.10;53.37
40372;BME280;28564;53.346;-6.554;2023-10-09T05:00:06;101399.84;;;19.54;53.29
40372;BME280;28564;53.346;-6.554;2023-10-09T05:02:34;101403.52;;;19.07;53.25
40372;BME280;28564;53.346;-6.554;2023-10-09T05:05:01;101404.29;;;19.48;53.27
40372;BME280;28564;53.346;-6.554;2023-10-09T05:07:28;101408.03;;;19.21;53.24
40372;BME280;28564;53.346;-6.554;2023-10-09T05:09:55;101410.04;;;19.15;53.16
40372;BME280;28564;53.346;-6.554;2023-10-09T05:12:22;101405.55;;;19.30;53.11
40372;BME280;28564;53.346;-6.554;2023-10-09T05:14:49;101403.91;;;19.19;53.23
40372;BME280;28564;53.346;-6.554;2023-10-09T05:17:16;101408.70;;;19.11;53.33
40372;BME280;28564;53.346;-6.554;2023-10-09T05:19:44;101411.00;;;19.02;53.48
40372;BME280;28564;53.346;-6.554;2023-10-09T05:22:11;101411.86;;;18.95;53.56
40372;BME280;28564;53.346;-6.554;2023-10-09T05:24:38;101412.17;;;19.37;53.63
40372;BME280;28564;53.346;-6.554;2023-10-09T05:27:05;101410.79;;;18.61;53.67
40372;BME280;28564;53.346;-6.554;2023-10-09T05:29:32;101408.62;;;19.04;53.71
40372;BME280;28564;53.346;-6.554;2023-10-09T05:32:00;101408.21;;;18.99;53.78
40372;BME280;28564;53.346;-6.554;2023-10-09T05:34:28;101415.15;;;18.68;53.83
40372;BME280;28564;53.346;-6.554;2023-10-09T05:36:56;101420.72;;;18.66;53.88
40372;BME280;28564;53.346;-6.554;2023-10-09T05:39:23;101421.15;;;18.65;53.84
40372;BME280;28564;53.346;-6.554;2023-10-09T05:41:50;101422.72;;;18.62;53.82
40372;BME280;28564;53.346;-6.554;2023-10-09T05:44:17;101430.51;;;18.64;53.72
40372;BME280;28564;53.346;-6.554;2023-10-09T05:46:45;101435.79;;;18.41;53.74
40372;BME280;28564;53.346;-6.554;2023-10-09T05:49:12;101436.26;;;18.65;53.82
40372;BME280;28564;53.346;-6.554;2023-10-09T05:51:39;101437.75;;;18.71;53.92
40372;BME280;28564;53.346;-6.554;2023-10-09T05:54:07;101435.02;;;18.80;53.94
40372;BME280;28564;53.346;-6.554;2023-10-09T05:56:34;101433.15;;;18.88;53.86
40372;BME280;28564;53.346;-6.554;2023-10-09T05:59:01;101427.11;;;18.72;53.85
40372;BME280;28564;53.346;-6.554;2023-10-09T06:01:28;101422.02;;;19.02;53.75
40372;BME280;28564;53.346;-6.554;2023-10-09T06:03:55;101417.60;;;19.08;53.52
40372;BME280;28564;53.346;-6.554;2023-10-09T06:06:22;101409.13;;;18.95;53.11
40372;BME280;28564;53.346;-6.554;2023-10-09T06:08:50;101406.19;;;19.17;52.86
40372;BME280;28564;53.346;-6.554;2023-10-09T06:11:18;101401.10;;;18.87;52.72
40372;BME280;28564;53.346;-6.554;2023-10-09T06:13:45;101400.69;;;18.79;52.69
40372;BME280;28564;53.346;-6.554;2023-10-09T06:16:12;101402.36;;;18.95;52.67
40372;BME280;28564;53.346;-6.554;2023-10-09T06:18:39;101405.33;;;18.44;52.60
40372;BME280;28564;53.346;-6.554;2023-10-09T06:21:06;101404.92;;;18.81;52.57
40372;BME280;28564;53.346;-6.554;2023-10-09T06:23:33;101405.29;;;19.04;52.68
40372;BME280;28564;53.346;-6.554;2023-10-09T06:26:00;101405.15;;;18.75;52.70
40372;BME280;28564;53.346;-6.554;2023-10-09T06:28:28;101409.59;;;18.51;52.69
40372;BME280;28564;53.346;-6.554;2023-10-09T06:30:55;101416.06;;;18.70;52.67
40372;BME280;28564;53.346;-6.554;2023-10-09T06:33:22;101418.24;;;18.66;52.66
40372;BME280;28564;53.346;-6.554;2023-10-09T06:35:49;101418.99;;;18.63;52.70
40372;BME280;28564;53.346;-6.554;2023-10-09T06:38:16;101422.16;;;18.60;52.66
40372;BME280;28564;53.346;-6.554;2023-10-09T06:40:48;101425.10;;;18.58;52.61
40372;BME280;28564;53.346;-6.554;2023-10-09T06:43:15;101424.61;;;18.57;52.69
40372;BME280;28564;53.346;-6.554;2023-10-09T06:45:43;101425.53;;;18.59;52.64
40372;BME280;28564;53.346;-6.554;2023-10-09T06:48:09;101421.76;;;18.58;52.56
40372;BME280;28564;53.346;-6.554;2023-10-09T06:50:36;101418.88;;;18.57;52.50
40372;BME280;28564;53.346;-6.554;2023-10-09T06:53:03;101419.49;;;18.56;52.43
40372;BME280;28564;53.346;-6.554;2023-10-09T06:55:36;101417.99;;;18.54;52.41
40372;BME280;28564;53.346;-6.554;2023-10-09T06:58:03;101415.21;;;18.30;52.39
40372;BME280;28564;53.346;-6.554;2023-10-09T07:00:31;101412.24;;;18.76;52.39
40372;BME280;28564;53.346;-6.554;2023-10-09T07:02:58;101409.31;;;18.77;52.41
40372;BME280;28564;53.346;-6.554;2023-10-09T07:05:25;101412.64;;;18.52;52.36
40372;BME280;28564;53.346;-6.554;2023-10-09T07:07:53;101415.17;;;18.52;52.33
40372;BME280;28564;53.346;-6.554;2023-10-09T07:10:20;101420.94;;;18.53;52.35
40372;BME280;28564;53.346;-6.554;2023-10-09T07:12:48;101420.81;;;18.57;52.37
40372;BME280;28564;53.346;-6.554;2023-10-09T07:15:15;101420.82;;;18.61;52.42
40372;BME280;28564;53.346;-6.554;2023-10-09T07:17:42;101427.01;;;18.66;52.41
40372;BME280;28564;53.346;-6.554;2023-10-09T07:20:10;101433.03;;;18.73;52.44
40372;BME280;28564;53.346;-6.554;2023-10-09T07:22:37;101438.70;;;18.84;52.52
40372;BME280;28564;53.346;-6.554;2023-10-09T07:25:05;101440.81;;;18.64;52.10
40372;BME280;28564;53.346;-6.554;2023-10-09T07:27:32;101447.27;;;18.85;51.93
40372;BME280;28564;53.346;-6.554;2023-10-09T07:29:59;101447.90;;;18.57;51.91
40372;BME280;28564;53.346;-6.554;2023-10-09T07:32:26;101448.67;;;18.75;51.90
40372;BME280;28564;53.346;-6.554;2023-10-09T07:34:53;101445.78;;;18.77;52.14
40372;BME280;28564;53.346;-6.554;2023-10-09T07:37:21;101448.10;;;18.62;52.28
40372;BME280;28564;53.346;-6.554;2023-10-09T07:39:49;101446.27;;;18.88;52.10
40372;BME280;28564;53.346;-6.554;2023-10-09T07:42:17;101443.57;;;18.90;52.10
40372;BME280;28564;53.346;-6.554;2023-10-09T07:44:44;101444.26;;;18.94;52.21
40372;BME280;28564;53.346;-6.554;2023-10-09T07:47:11;101445.55;;;18.74;52.13
40372;BME280;28564;53.346;-6.554;2023-10-09T07:49:38;101440.82;;;18.97;52.17
40372;BME280;28564;53.346;-6.554;2023-10-09T07:52:05;101440.04;;;19.03;52.30
40372;BME280;28564;53.346;-6.554;2023-10-09T07:54:33;101440.32;;;18.88;52.42
40372;BME280;28564;53.346;-6.554;2023-10-09T07:57:00;101442.56;;;19.16;52.31
40372;BME280;28564;53.346;-6.554;2023-10-09T07:59:27;101447.08;;;19.19;52.16
40372;BME280;28564;53.346;-6.554;2023-10-09T08:01:54;101451.37;;;19.18;52.14
40372;BME280;28564;53.346;-6.554;2023-10-09T08:04:22;101452.01;;;19.16;52.14
40372;BME280;28564;53.346;-6.554;2023-10-09T08:06:49;101447.69;;;19.19;52.25
40372;BME280;28564;53.346;-6.554;2023-10-09T08:09:16;101442.09;;;18.97;52.22
40372;BME280;28564;53.346;-6.554;2023-10-09T08:11:46;101440.05;;;18.97;52.22
40372;BME280;28564;53.346;-6.554;2023-10-09T08:14:14;101436.50;;;19.21;52.31
40372;BME280;28564;53.346;-6.554;2023-10-09T08:16:41;101435.97;;;18.79;52.27
40372;BME280;28564;53.346;-6.554;2023-10-09T08:19:13;101434.11;;;18.80;52.27
40372;BME280;28564;53.346;-6.554;2023-10-09T08:21:40;101439.34;;;18.84;52.32
40372;BME280;28564;53.346;-6.554;2023-10-09T08:24:07;101443.77;;;19.12;52.32
40372;BME280;28564;53.346;-6.554;2023-10-09T08:26:35;101445.27;;;18.94;52.25
40372;BME280;28564;53.346;-6.554;2023-10-09T08:29:02;101442.46;;;19.22;52.34
40372;BME280;28564;53.346;-6.554;2023-10-09T08:31:29;101442.95;;;19.10;52.30
40372;BME280;28564;53.346;-6.554;2023-10-09T08:33:56;101438.72;;;19.16;52.29
40372;BME280;28564;53.346;-6.554;2023-10-09T08:36:24;101439.68;;;19.19;52.22
40372;BME280;28564;53.346;-6.554;2023-10-09T08:38:52;101437.32;;;19.18;52.22
40372;BME280;28564;53.346;-6.554;2023-10-09T08:41:19;101437.98;;;19.42;52.27
40372;BME280;28564;53.346;-6.554;2023-10-09T08:43:49;101442.38;;;19.48;52.22
40372;BME280;28564;53.346;-6.554;2023-10-09T08:46:21;101448.63;;;19.54;52.25
40372;BME280;28564;53.346;-6.554;2023-10-09T08:48:48;101452.19;;;19.39;52.20
40372;BME280;28564;53.346;-6.554;2023-10-09T08:51:17;101452.01;;;19.48;52.16
40372;BME280;28564;53.346;-6.554;2023-10-09T08:53:45;101452.40;;;19.59;52.10
40372;BME280;28564;53.346;-6.554;2023-10-09T08:56:13;101444.47;;;19.69;52.05
40372;BME280;28564;53.346;-6.554;2023-10-09T08:58:40;101443.09;;;19.78;51.98
40372;BME280;28564;53.346;-6.554;2023-10-09T09:03:50;101459.56;;;19.95;51.03
40372;BME280;28564;53.346;-6.554;2023-10-09T09:06:18;101462.43;;;20.44;51.08
40372;BME280;28564;53.346;-6.554;2023-10-09T09:08:46;101463.44;;;20.09;51.29
40372;BME280;28564;53.346;-6.554;2023-10-09T09:11:15;101465.58;;;19.85;51.48
40372;BME280;28564;53.346;-6.554;2023-10-09T09:13:43;101465.36;;;20.07;51.54
40372;BME280;28564;53.346;-6.554;2023-10-09T09:16:15;101468.43;;;20.32;51.62
40372;BME280;28564;53.346;-6.554;2023-10-09T09:18:50;101464.33;;;20.08;51.71
40372;BME280;28564;53.346;-6.554;2023-10-09T09:21:18;101463.83;;;20.15;51.69
40372;BME280;28564;53.346;-6.554;2023-10-09T09:23:53;101455.03;;;19.95;51.53
40372;BME280;28564;53.346;-6.554;2023-10-09T09:26:33;101450.33;;;20.49;51.49
40372;BME280;28564;53.346;-6.554;2023-10-09T09:29:00;101452.91;;;20.55;51.49
40372;BME280;28564;53.346;-6.554;2023-10-09T09:31:27;101455.64;;;20.35;51.43
40372;BME280;28564;53.346;-6.554;2023-10-09T09:33:56;101454.68;;;20.18;51.41
40372;BME280;28564;53.346;-6.554;2023-10-09T09:36:24;101452.76;;;20.29;51.49
40372;BME280;28564;53.346;-6.554;2023-10-09T09:38:51;101448.07;;;20.40;51.42
40372;BME280;28564;53.346;-6.554;2023-10-09T09:41:20;101448.21;;;20.71;51.32
40372;BME280;28564;53.346;-6.554;2023-10-09T09:43:47;101454.82;;;20.54;51.27
40372;BME280;28564;53.346;-6.554;2023-10-09T09:46:15;101456.05;;;20.60;51.23
40372;BME280;28564;53.346;-6.554;2023-10-09T09:48:44;101455.28;;;20.64;51.09
40372;BME280;28564;53.346;-6.554;2023-10-09T09:51:14;101454.55;;;20.68;51.04
40372;BME280;28564;53.346;-6.554;2023-10-09T09:53:41;101450.42;;;20.74;50.95
40372;BME280;28564;53.346;-6.554;2023-10-09T09:56:09;101446.58;;;20.81;50.82
40372;BME280;28564;53.346;-6.554;2023-10-09T09:58:40;101445.15;;;20.90;50.79
40372;BME280;28564;53.346;-6.554;2023-10-09T10:01:10;101442.43;;;21.01;50.69
40372;BME280;28564;53.346;-6.554;2023-10-09T10:03:42;101435.99;;;21.32;50.59
40372;BME280;28564;53.346;-6.554;2023-10-09T10:06:12;101432.92;;;20.96;50.16
40372;BME280;28564;53.346;-6.554;2023-10-09T10:08:41;101434.14;;;21.26;50.14
40372;BME280;28564;53.346;-6.554;2023-10-09T10:11:41;101435.09;;;21.13;50.04
40372;BME280;28564;53.346;-6.554;2023-10-09T10:14:08;101427.15;;;21.03;50.07
40372;BME280;28564;53.346;-6.554;2023-10-09T10:17:00;101422.49;;;21.70;49.96
40372;BME280;28564;53.346;-6.554;2023-10-09T10:19:59;101413.25;;;21.66;49.33
40372;BME280;28564;53.346;-6.554;2023-10-09T10:22:27;101407.68;;;21.67;49.08
40372;BME280;28564;53.346;-6.554;2023-10-09T10:24:54;101409.96;;;22.15;49.00
40372;BME280;28564;53.346;-6.554;2023-10-09T10:27:22;101404.34;;;22.02;48.80
40372;BME280;28564;53.346;-6.554;2023-10-09T10:30:27;101399.41;;;22.16;48.65
40372;BME280;28564;53.346;-6.554;2023-10-09T10:32:55;101396.42;;;22.15;48.40
40372;BME280;28564;53.346;-6.554;2023-10-09T10:35:22;101395.96;;;22.33;48.05
40372;BME280;28564;53.346;-6.554;2023-10-09T10:37:49;101393.02;;;22.72;47.76
40372;BME280;28564;53.346;-6.554;2023-10-09T10:40:22;101393.16;;;22.67;47.47
40372;BME280;28564;53.346;-6.554;2023-10-09T10:42:49;101398.43;;;23.01;47.09
40372;BME280;28564;53.346;-6.554;2023-10-09T10:45:18;101398.68;;;23.12;47.02
40372;BME280;28564;53.346;-6.554;2023-10-09T10:47:47;101393.35;;;23.00;46.99
40372;BME280;28564;53.346;-6.554;2023-10-09T10:50:17;101389.83;;;23.11;46.80
40372;BME280;28564;53.346;-6.554;2023-10-09T10:52:45;101388.49;;;22.72;46.85
40372;BME280;28564;53.346;-6.554;2023-10-09T10:55:14;101384.78;;;23.08;46.84
40372;BME280;28564;53.346;-6.554;2023-10-09T10:57:41;101379.96;;;23.19;46.66
40372;BME280;28564;53.346;-6.554;2023-10-09T11:00:11;101382.02;;;23.06;46.69
40372;BME280;28564;53.346;-6.554;2023-10-09T11:02:42;101386.79;;;23.36;46.45
40372;BME280;28564;53.346;-6.554;2023-10-09T11:05:09;101385.78;;;23.06;46.23
40372;BME280;28564;53.346;-6.554;2023-10-09T11:07:37;101381.49;;;23.52;45.89
40372;BME280;28564;53.346;-6.554;2023-10-09T11:10:06;101386.00;;;23.33;45.63
40372;BME280;28564;53.346;-6.554;2023-10-09T11:12:43;101383.14;;;23.61;45.34
40372;BME280;28564;53.346;-6.554;2023-10-09T11:15:12;101380.14;;;23.71;45.28
40372;BME280;28564;53.346;-6.554;2023-10-09T11:17:39;101379.55;;;23.61;45.14
40372;BME280;28564;53.346;-6.554;2023-10-09T11:20:07;101377.89;;;23.47;44.80
40372;BME280;28564;53.346;-6.554;2023-10-09T11:22:34;101374.65;;;23.92;43.69
40372;BME280;28564;53.346;-6.554;2023-10-09T11:25:02;101370.83;;;23.79;44.33
40372;BME280;28564;53.346;-6.554;2023-10-09T11:27:31;101369.15;;;23.95;44.72
40372;BME280;28564;53.346;-6.554;2023-10-09T11:29:58;101365.86;;;23.90;44.89
40372;BME280;28564;53.346;-6.554;2023-10-09T11:32:26;101364.60;;;24.05;44.62
40372;BME280;28564;53.346;-6.554;2023-10-09T11:35:10;101356.42;;;24.16;44.53
40372;BME280;28564;53.346;-6.554;2023-10-09T11:37:38;101349.99;;;24.33;44.63
40372;BME280;28564;53.346;-6.554;2023-10-09T11:40:06;101349.97;;;24.25;43.84
40372;BME280;28564;53.346;-6.554;2023-10-09T11:42:34;101344.92;;;24.53;44.09
40372;BME280;28564;53.346;-6.554;2023-10-09T11:45:03;101336.62;;;25.10;44.04
40372;BME280;28564;53.346;-6.554;2023-10-09T11:47:34;101334.60;;;24.64;43.18
40372;BME280;28564;53.346;-6.554;2023-10-09T11:50:01;101329.33;;;25.01;42.63
40372;BME280;28564;53.346;-6.554;2023-10-09T11:52:29;101321.97;;;25.10;42.57
40372;BME280;28564;53.346;-6.554;2023-10-09T11:54:57;101322.57;;;25.25;42.65
40372;BME280;28564;53.346;-6.554;2023-10-09T11:57:25;101316.88;;;25.41;42.55
40372;BME280;28564;53.346;-6.554;2023-10-09T11:59:53;101311.30;;;25.50;41.98
40372;BME280;28564;53.346;-6.554;2023-10-09T12:02:20;101304.91;;;25.56;41.84
40372;BME280;28564;53.346;-6.554;2023-10-09T12:04:47;101302.48;;;25.18;42.22
40372;BME280;28564;53.346;-6.554;2023-10-09T12:07:15;101299.82;;;25.59;42.37
40372;BME280;28564;53.346;-6.554;2023-10-09T12:09:42;101292.32;;;25.74;41.83
40372;BME280;28564;53.346;-6.554;2023-10-09T12:12:10;101291.00;;;25.60;41.66
40372;BME280;28564;53.346;-6.554;2023-10-09T12:14:37;101296.90;;;25.77;41.36
40372;BME280;28564;53.346;-6.554;2023-10-09T12:17:06;101297.77;;;25.90;40.51
40372;BME280;28564;53.346;-6.554;2023-10-09T12:19:35;101298.58;;;25.94;40.49
40372;BME280;28564;53.346;-6.554;2023-10-09T12:22:03;101297.06;;;26.33;39.98
40372;BME280;28564;53.346;-6.554;2023-10-09T12:24:31;101290.62;;;26.98;39.65
40372;BME280;28564;53.346;-6.554;2023-10-09T12:26:58;101288.17;;;27.50;39.07
40372;BME280;28564;53.346;-6.554;2023-10-09T12:29:26;101290.43;;;28.30;37.74
40372;BME280;28564;53.346;-6.554;2023-10-09T12:31:53;101284.78;;;28.92;35.80
40372;BME280;28564;53.346;-6.554;2023-10-09T12:34:20;101282.78;;;29.50;35.35
40372;BME280;28564;53.346;-6.554;2023-10-09T12:36:48;101282.89;;;29.95;33.58
40372;BME280;28564;53.346;-6.554;2023-10-09T12:39:15;101279.57;;;30.87;31.81
40372;BME280;28564;53.346;-6.554;2023-10-09T12:41:43;101285.02;;;31.09;30.69
40372;BME280;28564;53.346;-6.554;2023-10-09T12:44:10;101286.01;;;31.69;30.67
40372;BME280;28564;53.346;-6.554;2023-10-09T12:46:38;101286.30;;;32.02;29.47